Time;durP1;ratioP1;P1;durP2;ratioP2;P2;SDS_P1;SDS_P2;PMS_P1;PMS_P2;Temp;Humidity;BMP_temperature;BMP_pressure;BME280_temperature;BME280_humidity;BME280_pressure;Samples;Min_cycle;Max_cycle;Signal;HPM_P1;HPM_P2
2022/12/08 00:00:36;;;;;;;15.30;7.20;;;;;;;0.84;98.17;98109.09;214357;1310;22716;-75
2022/12/08 00:10:58;;;;;;;13.90;6.60;;;;;;;0.72;98.36;98107.12;214118;1310;22473;-76
2022/12/08 00:16:01;;;;;;;14.50;7.20;;;;;;;0.67;98.44;98110.27;214365;1310;22530;-75
2022/12/08 00:21:03;;;;;;;13.40;6.40;;;;;;;0.65;98.64;98111.08;214257;1310;22521;-76
2022/12/08 00:26:06;;;;;;;12.70;6.60;;;;;;;0.66;98.66;98114.98;214124;1309;24289;-76
2022/12/08 00:31:10;;;;;;;15.20;7.00;;;;;;;0.65;98.80;98116.87;214165;1307;22475;-76
2022/12/08 00:36:13;;;;;;;14.50;6.70;;;;;;;0.67;98.82;98120.86;214275;1310;25440;-77
2022/12/08 00:42:10;;;;;;;14.30;6.90;;;;;;;0.71;98.77;98119.38;214106;1310;22450;-76
2022/12/08 00:46:40;;;;;;;14.00;6.90;;;;;;;0.75;98.59;98125.20;214203;1310;22474;-76
2022/12/08 00:51:43;;;;;;;14.20;7.20;;;;;;;0.79;98.81;98131.48;213989;1310;22526;-76
2022/12/08 00:56:45;;;;;;;12.10;7.10;;;;;;;0.84;98.79;98137.30;214061;1310;22515;-75
2022/12/08 01:01:47;;;;;;;14.70;7.10;;;;;;;0.89;98.94;98143.13;214273;1310;22472;-77
2022/12/08 01:06:49;;;;;;;10.20;6.10;;;;;;;0.92;98.79;98145.08;214208;1307;22530;-75
2022/12/08 01:11:51;;;;;;;16.10;7.80;;;;;;;0.95;98.78;98150.19;214189;1310;22604;-75
2022/12/08 01:16:53;;;;;;;12.90;6.80;;;;;;;0.99;98.66;98153.61;214106;1310;22418;-74
2022/12/08 01:21:55;;;;;;;14.40;6.80;;;;;;;1.04;98.59;98157.98;214139;1310;24574;-75
2022/12/08 01:26:57;;;;;;;12.80;7.00;;;;;;;1.07;98.69;98154.52;214093;1310;25403;-76
2022/12/08 01:31:58;;;;;;;11.70;7.20;;;;;;;1.11;98.70;98156.55;214204;1310;24825;-76
2022/12/08 01:37:00;;;;;;;14.10;7.60;;;;;;;1.16;98.57;98156.86;214112;1310;25270;-76
2022/12/08 01:42:02;;;;;;;14.60;7.90;;;;;;;1.20;98.38;98158.20;214291;1310;24353;-76
2022/12/08 01:47:04;;;;;;;14.70;7.10;;;;;;;1.22;98.34;98152.16;214151;1310;22496;-76
2022/12/08 01:52:12;;;;;;;12.20;6.40;;;;;;;1.24;98.30;98150.85;213963;1310;22427;-77
2022/12/08 01:57:23;;;;;;;11.80;6.70;;;;;;;1.23;98.28;98151.17;214166;1310;24248;-75
2022/12/08 02:02:30;;;;;;;12.00;5.90;;;;;;;1.21;98.17;98151.35;214347;1310;24273;-76
2022/12/08 02:07:33;;;;;;;13.00;6.70;;;;;;;1.19;98.23;98144.41;214378;1310;25350;-75
2022/12/08 02:12:35;;;;;;;14.80;7.60;;;;;;;1.18;98.22;98146.34;214378;1310;22533;-75
2022/12/08 02:17:36;;;;;;;15.50;8.10;;;;;;;1.16;98.17;98141.52;214079;1310;22481;-76
2022/12/08 02:23:02;;;;;;;12.50;6.80;;;;;;;1.12;98.04;98141.14;213992;1310;22611;-75
2022/12/08 02:28:10;;;;;;;12.20;6.90;;;;;;;1.06;98.19;98129.40;214173;1310;22942;-77
2022/12/08 02:33:36;;;;;;;13.40;6.30;;;;;;;1.00;98.24;98132.00;214326;1304;22527;-76
2022/12/08 02:38:59;;;;;;;12.20;7.00;;;;;;;0.93;98.22;98133.27;214154;1310;24276;-75
2022/12/08 02:44:27;;;;;;;12.20;6.50;;;;;;;0.90;98.24;98129.32;214219;1310;22578;-76
2022/12/08 02:49:34;;;;;;;11.60;5.90;;;;;;;0.85;98.47;98130.48;214066;1310;24286;-77
2022/12/08 02:54:40;;;;;;;11.80;6.50;;;;;;;0.84;98.44;98129.29;214219;1310;24301;-76
2022/12/08 03:00:00;;;;;;;13.20;7.00;;;;;;;0.85;98.37;98136.28;214200;1304;22546;-75
2022/12/08 03:05:15;;;;;;;12.80;6.20;;;;;;;0.89;98.52;98142.97;214332;1310;24320;-75
2022/12/08 03:10:23;;;;;;;14.10;6.50;;;;;;;0.93;98.55;98142.34;214310;1310;22482;-74
2022/12/08 03:15:26;;;;;;;12.00;6.20;;;;;;;0.96;98.63;98140.87;214064;1310;24246;-78
2022/12/08 03:20:30;;;;;;;16.00;7.60;;;;;;;1.01;98.61;98144.73;214257;1305;22553;-76
2022/12/08 03:25:36;;;;;;;11.10;6.30;;;;;;;1.04;98.65;98136.35;214257;1310;22566;-76
2022/12/08 03:30:41;;;;;;;10.50;6.10;;;;;;;1.08;98.54;98136.33;214417;1310;22493;-76
2022/12/08 03:35:45;;;;;;;11.00;6.20;;;;;;;1.09;98.39;98141.95;214156;1310;23071;-76
2022/12/08 03:41:17;;;;;;;13.70;7.20;;;;;;;1.09;98.28;98132.77;214422;1310;23898;-75
2022/12/08 03:46:11;;;;;;;14.10;7.00;;;;;;;1.09;98.31;98124.33;214236;1310;24253;-75
2022/12/08 03:51:13;;;;;;;12.40;7.30;;;;;;;1.10;98.19;98122.80;214180;1310;22526;-76
2022/12/08 03:56:34;;;;;;;13.60;7.80;;;;;;;1.09;98.32;98125.34;214348;1305;22520;-76
2022/12/08 04:01:36;;;;;;;13.80;7.80;;;;;;;1.08;98.24;98130.27;214297;1310;25494;-76
2022/12/08 04:06:38;;;;;;;15.50;8.70;;;;;;;1.07;98.22;98130.25;214139;1310;24233;-76
2022/12/08 04:11:39;;;;;;;14.90;7.60;;;;;;;1.05;98.29;98127.23;214327;1310;22527;-76
2022/12/08 04:16:41;;;;;;;17.90;8.50;;;;;;;1.04;98.10;98127.63;214125;1310;25553;-75
2022/12/08 04:21:43;;;;;;;16.50;8.40;;;;;;;0.99;98.24;98122.29;214149;1310;22480;-75
2022/12/08 04:26:45;;;;;;;16.80;8.10;;;;;;;0.96;98.12;98118.19;214224;1310;24087;-76
2022/12/08 04:31:46;;;;;;;12.60;6.80;;;;;;;0.93;97.95;98116.91;214186;1310;24314;-75
2022/12/08 04:36:48;;;;;;;18.60;8.50;;;;;;;0.90;98.30;98115.73;214171;1310;24526;-76
2022/12/08 04:41:50;;;;;;;16.70;8.30;;;;;;;0.89;98.34;98113.48;214177;1310;23743;-74
2022/12/08 04:46:52;;;;;;;15.50;8.50;;;;;;;0.84;98.24;98111.78;214167;1310;22692;-76
2022/12/08 04:51:54;;;;;;;17.80;8.90;;;;;;;0.80;98.28;98113.20;214274;1311;22691;-76
2022/12/08 04:56:56;;;;;;;15.30;7.80;;;;;;;0.76;98.22;98110.35;214182;1310;25352;-76
2022/12/08 05:01:57;;;;;;;23.20;9.70;;;;;;;0.73;98.33;98114.58;214359;1310;22804;-75
2022/12/08 05:06:59;;;;;;;21.20;10.00;;;;;;;0.73;98.41;98114.40;214048;1310;25220;-76
2022/12/08 05:12:01;;;;;;;25.60;11.00;;;;;;;0.73;98.56;98107.49;214044;1310;22943;-76
2022/12/08 05:17:03;;;;;;;22.20;10.00;;;;;;;0.74;98.54;98108.98;214050;1310;24082;-76
2022/12/08 05:22:10;;;;;;;19.50;9.00;;;;;;;0.75;98.61;98106.52;214061;1310;23274;-76
2022/12/08 05:27:12;;;;;;;19.60;10.20;;;;;;;0.77;98.68;98101.59;214096;1310;22483;-76
2022/12/08 05:32:14;;;;;;;20.10;10.60;;;;;;;0.77;98.52;98101.08;214086;1310;25219;-76
2022/12/08 05:37:16;;;;;;;20.90;9.70;;;;;;;0.78;98.56;98105.20;214207;1310;22618;-75
2022/12/08 05:42:17;;;;;;;16.70;8.80;;;;;;;0.78;98.57;98103.67;214125;1300;22487;-75
2022/12/08 05:47:25;;;;;;;15.20;8.60;;;;;;;0.78;98.75;98096.23;214254;1310;25370;-75
2022/12/08 05:52:31;;;;;;;18.80;9.50;;;;;;;0.80;98.57;98105.50;214097;1310;24276;-75
2022/12/08 05:57:32;;;;;;;23.50;10.30;;;;;;;0.82;98.74;98102.47;214372;1310;24307;-75
2022/12/08 06:02:34;;;;;;;18.30;8.60;;;;;;;0.83;98.67;98094.61;214029;1310;23772;-76
2022/12/08 06:07:36;;;;;;;18.20;8.80;;;;;;;0.84;98.49;98102.87;214034;1310;22599;-76
2022/12/08 06:12:39;;;;;;;19.90;9.20;;;;;;;0.85;98.68;98112.22;214126;1310;22454;-76
2022/12/08 06:17:41;;;;;;;18.60;8.90;;;;;;;0.86;98.26;98117.40;214081;1310;22546;-76
2022/12/08 06:22:42;;;;;;;14.60;7.50;;;;;;;0.86;98.32;98124.98;214130;1310;22609;-75
2022/12/08 06:27:44;;;;;;;13.90;7.90;;;;;;;0.86;98.21;98129.00;214144;1310;22589;-75
2022/12/08 06:32:46;;;;;;;16.90;7.30;;;;;;;0.87;98.28;98128.80;214118;1310;22467;-76
2022/12/08 06:37:50;;;;;;;16.80;8.90;;;;;;;0.88;98.30;98139.52;214079;1306;24408;-75
2022/12/08 06:42:52;;;;;;;18.60;8.80;;;;;;;0.90;98.16;98142.56;214126;1310;24353;-72
2022/12/08 06:47:53;;;;;;;20.90;11.30;;;;;;;0.92;98.31;98148.40;214257;1310;22642;-76
2022/12/08 06:52:55;;;;;;;17.60;9.10;;;;;;;0.95;98.33;98144.28;214393;1284;25230;-74
2022/12/08 06:58:06;;;;;;;17.50;9.60;;;;;;;0.99;98.02;98153.52;214503;1278;27954;-75
2022/12/08 07:03:09;;;;;;;17.40;8.80;;;;;;;1.05;97.84;98158.81;214812;1281;22597;-74
2022/12/08 07:08:11;;;;;;;16.70;9.20;;;;;;;1.09;97.77;98164.89;215051;1281;138584;-75
2022/12/08 07:13:13;;;;;;;15.10;8.60;;;;;;;1.13;97.71;98161.42;215273;1281;138863;-75
2022/12/08 07:18:14;;;;;;;15.30;8.70;;;;;;;1.17;97.41;98165.48;214448;1281;138619;-75
2022/12/08 07:23:16;;;;;;;19.90;9.90;;;;;;;1.17;97.38;98156.78;214456;1281;138782;-74
2022/12/08 07:28:18;;;;;;;17.40;8.30;;;;;;;1.18;97.22;98152.20;214491;1288;22588;-75
2022/12/08 07:33:20;;;;;;;20.20;9.40;;;;;;;1.17;97.11;98153.30;214516;1281;138423;-75
2022/12/08 07:38:21;;;;;;;18.60;10.30;;;;;;;1.15;97.13;98156.02;214547;1281;138673;-76
2022/12/08 07:43:23;;;;;;;21.80;10.70;;;;;;;1.15;96.96;98153.33;214458;1281;138786;-76
2022/12/08 07:48:25;;;;;;;24.50;10.50;;;;;;;1.17;97.08;98153.35;214440;1284;139328;-75
2022/12/08 07:53:27;;;;;;;27.90;13.10;;;;;;;1.22;97.12;98151.95;214453;1284;139224;-76
2022/12/08 07:58:29;;;;;;;34.70;16.20;;;;;;;1.33;97.44;98153.67;214554;1287;22523;-76
2022/12/08 08:03:30;;;;;;;40.10;18.80;;;;;;;1.48;97.70;98155.35;214539;1286;138493;-76
2022/12/08 08:08:32;;;;;;;29.20;14.00;;;;;;;1.63;97.64;98152.70;215071;1278;138910;-76
2022/12/08 08:13:34;;;;;;;22.70;12.70;;;;;;;1.78;97.57;98151.25;214833;1286;139057;-76
2022/12/08 08:18:36;;;;;;;34.60;14.50;;;;;;;1.92;97.16;98151.84;214448;1297;139185;-75
2022/12/08 08:23:38;;;;;;;38.70;18.20;;;;;;;2.07;97.30;98149.63;214243;1284;138806;-76
2022/12/08 08:28:40;;;;;;;25.80;12.80;;;;;;;2.25;97.11;98145.56;214488;1281;25271;-77
2022/12/08 08:33:42;;;;;;;25.40;12.80;;;;;;;2.35;96.56;98145.09;214427;1284;138807;-75
2022/12/08 08:38:44;;;;;;;22.40;12.40;;;;;;;2.37;96.00;98145.33;214272;1310;138962;-75
2022/12/08 08:43:45;;;;;;;26.80;14.40;;;;;;;2.42;96.12;98144.48;214306;1284;139334;-75
2022/12/08 08:48:47;;;;;;;27.00;13.90;;;;;;;2.56;96.36;98145.92;214278;1285;141407;-76
2022/12/08 08:53:49;;;;;;;36.30;18.50;;;;;;;2.74;96.32;98146.22;214370;1310;139309;-77
2022/12/08 08:58:52;;;;;;;38.20;19.40;;;;;;;2.92;96.53;98149.96;214328;1310;24231;-75
2022/12/08 09:03:55;;;;;;;48.10;21.10;;;;;;;3.11;96.52;98147.14;214293;1288;138595;-77
2022/12/08 09:08:57;;;;;;;22.80;12.50;;;;;;;3.28;96.00;98143.01;214852;1298;139290;-76
2022/12/08 09:13:59;;;;;;;18.80;9.20;;;;;;;3.37;94.71;98146.87;214350;1310;139365;-76
2022/12/08 09:19:01;;;;;;;16.00;8.50;;;;;;;3.47;93.54;98139.03;214248;1310;138516;-76
2022/12/08 09:24:03;;;;;;;14.90;7.80;;;;;;;3.56;92.79;98134.24;214351;1310;138667;-76
2022/12/08 09:29:04;;;;;;;17.20;8.50;;;;;;;3.63;91.32;98125.13;214436;1287;24474;-74
2022/12/08 09:34:06;;;;;;;18.00;7.90;;;;;;;3.71;90.62;98118.33;214451;1286;138461;-76
2022/12/08 09:39:08;;;;;;;14.80;7.90;;;;;;;3.78;90.61;98112.04;215206;1302;138886;-77
2022/12/08 09:44:28;;;;;;;18.10;8.80;;;;;;;3.92;90.35;98109.00;215359;1310;139107;-75
2022/12/08 09:49:38;;;;;;;16.30;8.20;;;;;;;4.01;90.15;98103.41;215253;1288;138558;-75
2022/12/08 09:54:40;;;;;;;;;;;;;;;4.08;89.68;98101.27;215242;1287;139458;-75
2022/12/08 09:59:46;;;;;;;14.30;7.10;;;;;;;4.15;88.10;98097.83;215459;1285;125443;-74
2022/12/08 10:04:49;;;;;;;12.00;7.40;;;;;;;4.20;88.13;98097.83;215359;1288;22456;-74
2022/12/08 10:10:36;;;;;;;11.10;6.80;;;;;;;4.23;87.54;98098.04;215881;1289;138603;-75
2022/12/08 10:16:24;;;;;;;13.40;7.20;;;;;;;4.21;86.50;98095.55;215345;1304;139167;-75
2022/12/08 10:21:31;;;;;;;11.60;6.60;;;;;;;4.20;85.46;98095.02;215257;1294;139083;-75
2022/12/08 10:26:33;;;;;;;9.10;5.60;;;;;;;4.22;85.57;98093.27;215243;1302;138764;-76
2022/12/08 10:31:35;;;;;;;10.20;5.80;;;;;;;4.20;85.39;98089.51;215307;1311;138462;-76
2022/12/08 10:36:48;;;;;;;12.40;7.00;;;;;;;4.15;84.74;98090.18;215417;1281;138894;-76
2022/12/08 10:41:50;;;;;;;11.20;6.00;;;;;;;4.15;85.29;98084.20;219782;1295;139434;-76
2022/12/08 10:46:52;;;;;;;9.90;5.80;;;;;;;4.17;84.72;98081.92;219823;1307;24216;-76
2022/12/08 10:51:54;;;;;;;10.60;6.10;;;;;;;4.15;84.43;98080.91;219767;1288;138924;-76
2022/12/08 10:56:56;;;;;;;9.20;6.20;;;;;;;4.02;82.73;98082.48;219762;1295;139278;-76
2022/12/08 11:01:59;;;;;;;10.60;6.30;;;;;;;3.88;83.64;98076.30;219976;1304;139366;-76
2022/12/08 11:07:04;;;;;;;11.10;6.90;;;;;;;3.78;84.11;98073.83;219820;1313;138859;-76
2022/12/08 11:12:12;;;;;;;11.50;6.40;;;;;;;3.75;84.37;98071.66;219799;1288;139313;-77
2022/12/08 11:17:22;;;;;;;10.30;6.10;;;;;;;3.70;84.44;98075.55;219826;1304;138589;-76
2022/12/08 11:22:24;;;;;;;12.80;7.20;;;;;;;3.67;85.15;98070.03;219832;1295;24246;-76
2022/12/08 11:27:26;;;;;;;12.40;6.70;;;;;;;3.74;85.87;98061.52;219785;1303;139087;-76
2022/12/08 11:32:28;;;;;;;12.90;7.40;;;;;;;3.79;85.99;98059.73;219700;1305;139327;-76
2022/12/08 11:37:40;;;;;;;13.20;5.90;;;;;;;3.79;86.02;98058.45;219274;1304;138562;-76
2022/12/08 11:42:51;;;;;;;13.30;8.10;;;;;;;3.78;85.51;98060.65;214234;1306;138554;-77
2022/12/08 11:48:00;;;;;;;;;;;;;;;3.74;86.35;98056.55;214264;1312;138519;-77
2022/12/08 11:53:05;;;;;;;14.30;6.90;;;;;;;3.82;86.66;98055.98;214666;1285;25431;-78
2022/12/08 11:58:25;;;;;;;14.20;7.50;;;;;;;3.76;86.73;98050.67;214388;1313;138145;-78
2022/12/08 12:04:06;;;;;;;13.20;7.00;;;;;;;3.71;86.83;98054.63;214436;1281;138521;-77
2022/12/08 12:09:21;;;;;;;;;;;;;;;3.63;87.14;98057.89;215272;1284;138923;-77
2022/12/08 12:14:32;;;;;;;10.90;5.90;;;;;;;3.57;87.09;98058.89;214541;1313;24436;-79
2022/12/08 12:19:38;;;;;;;11.00;6.40;;;;;;;3.47;87.42;98050.80;214515;1295;139007;-75
2022/12/08 12:24:43;;;;;;;10.50;6.10;;;;;;;3.37;87.79;98054.26;214404;1288;138560;-76
2022/12/08 12:29:55;;;;;;;11.50;6.00;;;;;;;3.22;87.78;98050.01;214516;1310;138618;-76
2022/12/08 12:34:59;;;;;;;10.60;5.50;;;;;;;3.03;88.49;98053.45;215094;1287;26376;-75
2022/12/08 12:40:16;;;;;;;8.10;3.10;;;;;;;2.95;89.04;98049.23;215266;1284;139018;-74
2022/12/08 12:45:20;;;;;;;7.00;4.20;;;;;;;2.84;89.45;98046.94;215205;1288;138268;-76
2022/12/08 12:50:31;;;;;;;5.50;3.60;;;;;;;2.74;89.92;98046.20;214358;1287;138569;-75
2022/12/08 12:55:58;;;;;;;8.40;4.40;;;;;;;2.65;90.59;98043.12;214442;1280;138523;-75
2022/12/08 13:01:08;;;;;;;6.20;3.70;;;;;;;2.55;91.09;98041.04;214405;1289;138556;-74
2022/12/08 13:06:13;;;;;;;9.40;4.50;;;;;;;2.44;91.71;98034.51;214593;1281;138443;-74
2022/12/08 13:11:17;;;;;;;7.60;4.50;;;;;;;2.38;91.98;98038.48;214963;1285;138586;-74
2022/12/08 13:16:23;;;;;;;10.80;5.30;;;;;;;2.28;92.49;98036.50;214451;1288;22499;-78
2022/12/08 13:21:32;;;;;;;17.20;9.10;;;;;;;2.18;92.89;98036.73;214539;1281;138549;-77
2022/12/08 13:26:43;;;;;;;9.70;5.50;;;;;;;2.14;93.28;98035.38;214319;1284;138729;-78
2022/12/08 13:31:49;;;;;;;13.00;7.30;;;;;;;2.10;93.56;98034.66;214397;1311;138389;-76
2022/12/08 13:37:11;;;;;;;14.60;7.00;;;;;;;2.08;94.08;98029.30;214474;1295;138543;-77
2022/12/08 13:42:23;;;;;;;11.80;6.20;;;;;;;2.09;94.52;98036.92;214455;1281;138526;-78
2022/12/08 13:47:33;;;;;;;12.40;6.70;;;;;;;2.09;94.78;98038.92;214328;1303;138645;-77
2022/12/08 13:52:39;;;;;;;;;;;;;;;2.08;94.90;98037.98;214467;1304;23844;-78
2022/12/08 13:58:01;;;;;;;9.50;5.60;;;;;;;2.04;95.35;98039.25;214297;1313;124546;-78
2022/12/08 14:03:03;;;;;;;12.30;7.10;;;;;;;2.03;95.62;98041.15;214299;1293;138576;-79
2022/12/08 14:08:17;;;;;;;13.40;7.70;;;;;;;2.03;95.92;98038.45;214674;1284;138653;-79
2022/12/08 14:13:39;;;;;;;21.90;9.20;;;;;;;2.00;96.04;98038.21;214834;1284;139060;-79
2022/12/08 14:18:41;;;;;;;11.60;6.50;;;;;;;1.93;96.08;98039.36;214525;1284;22510;-75
2022/12/08 14:23:43;;;;;;;15.00;7.20;;;;;;;1.84;96.38;98039.59;214459;1287;25206;-76
2022/12/08 14:28:45;;;;;;;15.10;7.30;;;;;;;1.76;96.69;98038.36;214557;1287;24482;-79
2022/12/08 14:33:47;;;;;;;17.10;8.20;;;;;;;1.68;97.01;98039.10;214355;1284;22622;-77
2022/12/08 14:38:57;;;;;;;15.40;8.50;;;;;;;1.64;97.26;98036.70;214439;1287;22598;-77
2022/12/08 14:44:00;;;;;;;19.60;9.00;;;;;;;1.61;97.46;98043.27;214447;1288;25339;-76
2022/12/08 14:49:03;;;;;;;23.60;11.30;;;;;;;1.59;97.60;98044.56;214774;1284;22472;-76
2022/12/08 14:54:11;;;;;;;30.20;14.40;;;;;;;1.59;97.78;98047.52;214423;1294;22571;-76
2022/12/08 14:59:25;;;;;;;32.50;16.30;;;;;;;1.65;98.06;98046.31;214353;1287;23978;-77
2022/12/08 15:04:27;;;;;;;42.40;18.90;;;;;;;1.72;98.26;98039.85;214197;1287;25432;-78
2022/12/08 15:09:43;;;;;;;38.70;18.00;;;;;;;1.78;98.27;98039.80;214071;1312;25282;-78
2022/12/08 15:14:54;;;;;;;72.70;29.30;;;;;;;1.81;98.33;98037.34;213961;1312;22580;-78
2022/12/08 15:19:57;;;;;;;58.70;26.10;;;;;;;1.81;98.05;98039.19;213997;1312;22690;-77
2022/12/08 15:24:59;;;;;;;70.90;30.50;;;;;;;1.83;98.24;98034.94;214028;1311;22639;-77
2022/12/08 15:30:01;;;;;;;82.00;32.50;;;;;;;1.86;98.37;98025.41;213953;1312;22526;-78
2022/12/08 15:35:03;;;;;;;83.80;33.80;;;;;;;1.90;98.37;98025.39;213995;1312;22496;-78
2022/12/08 15:40:09;;;;;;;88.20;34.60;;;;;;;1.93;98.39;98024.41;214016;1312;24269;-78
2022/12/08 15:45:15;;;;;;;93.10;35.60;;;;;;;1.91;98.30;98014.09;213843;1312;22566;-78
2022/12/08 15:50:20;;;;;;;87.60;37.30;;;;;;;1.94;98.49;98009.05;213904;1312;25271;-77
2022/12/08 15:55:22;;;;;;;95.80;35.80;;;;;;;1.95;98.50;98005.21;213857;1313;23751;-78
2022/12/08 16:00:26;;;;;;;78.40;32.90;;;;;;;1.97;98.55;97998.77;214037;1312;22597;-78
2022/12/08 16:05:48;;;;;;;85.50;32.20;;;;;;;1.97;98.50;97996.36;214063;1312;22589;-77
2022/12/08 16:16:51;;;;;;;85.10;30.00;;;;;;;2.02;98.70;97991.95;214189;1312;22483;-79
2022/12/08 16:21:52;;;;;;;96.90;38.40;;;;;;;2.03;98.86;97993.29;213876;1312;22482;-77
2022/12/08 16:27:26;;;;;;;91.20;34.90;;;;;;;2.05;98.84;97993.45;213927;1312;22601;-78
2022/12/08 16:32:49;;;;;;;107.80;39.70;;;;;;;2.07;98.79;97992.84;213842;1312;24270;-77
2022/12/08 16:37:50;;;;;;;110.20;38.60;;;;;;;2.08;98.81;97992.89;213972;1312;22505;-78
2022/12/08 16:42:52;;;;;;;99.30;37.00;;;;;;;2.09;98.84;97991.11;213941;1312;24318;-77
2022/12/08 16:47:59;;;;;;;101.70;37.20;;;;;;;2.10;98.93;97991.31;213972;1312;25338;-76
2022/12/08 16:53:04;;;;;;;87.60;31.60;;;;;;;2.11;98.79;97990.74;213879;1313;22495;-78
2022/12/08 16:58:06;;;;;;;91.90;32.30;;;;;;;2.09;98.76;97990.16;213858;1312;22488;-78
2022/12/08 17:03:12;;;;;;;88.50;32.10;;;;;;;2.09;98.84;97990.69;213937;1313;22465;-79
2022/12/08 17:08:14;;;;;;;95.00;32.70;;;;;;;2.11;98.86;97990.75;213834;1312;22520;-77
2022/12/08 17:13:16;;;;;;;90.50;31.90;;;;;;;2.13;98.93;97988.49;213765;1313;25447;-78
2022/12/08 17:18:18;;;;;;;93.00;33.30;;;;;;;2.11;98.96;97984.56;213913;1312;25340;-77
2022/12/08 17:23:19;;;;;;;91.00;33.10;;;;;;;2.17;98.97;97990.16;213953;1312;25312;-77
2022/12/08 17:28:21;;;;;;;96.30;34.80;;;;;;;2.19;98.96;97986.92;213862;1312;25339;-77
2022/12/08 17:33:44;;;;;;;113.60;39.80;;;;;;;2.19;98.88;97987.23;213937;1312;24984;-77
2022/12/08 17:38:46;;;;;;;105.40;37.70;;;;;;;2.19;98.88;97991.34;213848;1312;22470;-78
2022/12/08 17:43:48;;;;;;;117.40;42.10;;;;;;;2.22;98.94;97993.11;213903;1311;25332;-77
2022/12/08 17:48:50;;;;;;;118.60;42.20;;;;;;;2.25;99.15;97999.10;213742;1307;22606;-78
2022/12/08 17:53:51;;;;;;;117.80;44.30;;;;;;;2.25;98.87;97995.98;213790;1312;22955;-77
2022/12/08 17:58:53;;;;;;;95.50;36.40;;;;;;;2.22;98.67;97991.63;213843;1312;24307;-77
2022/12/08 18:03:56;;;;;;;95.20;35.60;;;;;;;2.13;98.39;97985.38;213819;1312;24223;-77
2022/12/08 18:08:59;;;;;;;97.60;36.20;;;;;;;2.08;98.46;97989.78;213972;1311;24366;-77
2022/12/08 18:14:08;;;;;;;114.20;41.90;;;;;;;2.03;98.49;97991.43;213871;1312;24355;-79
2022/12/08 18:19:11;;;;;;;123.00;45.50;;;;;;;1.98;98.37;97987.48;213886;1312;23900;-77
2022/12/08 18:24:20;;;;;;;126.40;47.10;;;;;;;1.95;98.50;97985.33;214041;1311;24552;-77
2022/12/08 18:29:23;;;;;;;119.40;48.10;;;;;;;1.92;98.49;97984.04;213872;1312;22464;-77
2022/12/08 18:34:25;;;;;;;106.00;42.20;;;;;;;1.90;98.58;97986.35;213974;1312;25306;-75
2022/12/08 18:39:31;;;;;;;116.80;46.60;;;;;;;1.87;98.78;97982.10;213896;1312;22488;-76
2022/12/08 18:44:33;;;;;;;130.90;53.10;;;;;;;1.83;98.62;97977.16;213885;1301;22623;-77
2022/12/08 18:49:35;;;;;;;140.80;57.00;;;;;;;1.84;98.92;97971.67;213929;1312;22662;-77
2022/12/08 18:54:37;;;;;;;149.90;58.30;;;;;;;1.85;99.00;97970.93;214001;1312;22466;-77
2022/12/08 19:00:01;;;;;;;142.30;59.50;;;;;;;1.83;98.94;97973.24;213916;1312;22614;-77
2022/12/08 19:05:04;;;;;;;127.80;54.90;;;;;;;1.81;99.04;97975.19;213941;1312;24338;-77
2022/12/08 19:10:07;;;;;;;138.20;56.70;;;;;;;1.78;98.92;97974.27;213871;1312;22484;-77
2022/12/08 19:15:09;;;;;;;138.50;56.40;;;;;;;1.74;99.00;97970.36;213848;1312;25395;-77
2022/12/08 19:20:12;;;;;;;135.40;56.80;;;;;;;1.71;99.10;97977.30;213955;1312;22700;-76
2022/12/08 19:25:13;;;;;;;134.10;54.50;;;;;;;1.71;99.25;97979.11;213941;1312;24346;-77
2022/12/08 19:30:16;;;;;;;149.50;60.00;;;;;;;1.71;99.23;97978.05;213735;1312;22745;-77
2022/12/08 19:35:17;;;;;;;131.40;55.10;;;;;;;1.72;99.38;97978.47;214036;1312;22514;-76
2022/12/08 19:45:40;;;;;;;188.70;74.80;;;;;;;1.77;99.67;97984.37;213907;1312;25632;-76
2022/12/08 19:50:42;;;;;;;189.00;75.90;;;;;;;1.80;99.83;97978.76;213957;1311;22599;-77
2022/12/08 19:55:44;;;;;;;179.90;73.30;;;;;;;1.82;99.72;97972.19;213819;1312;22468;-77
2022/12/08 20:00:47;;;;;;;163.80;66.80;;;;;;;1.81;99.62;97961.50;213903;1312;24397;-78
2022/12/08 20:05:51;;;;;;;191.40;75.60;;;;;;;1.81;99.72;97961.71;213869;1312;25445;-77
2022/12/08 20:10:54;;;;;;;176.00;72.80;;;;;;;1.85;99.98;97963.80;213978;1312;25305;-77
2022/12/08 20:15:57;;;;;;;210.60;80.00;;;;;;;1.87;100.00;97963.62;213961;1312;25365;-76
2022/12/08 20:21:00;;;;;;;189.10;75.30;;;;;;;1.90;100.00;97961.15;213899;1312;25307;-76
2022/12/08 20:26:07;;;;;;;161.10;66.30;;;;;;;1.92;100.00;97957.80;213827;1312;24622;-77
2022/12/08 20:31:24;;;;;;;204.70;81.80;;;;;;;1.91;99.96;97955.40;213965;1312;22476;-78
2022/12/08 20:36:26;;;;;;;175.50;68.20;;;;;;;1.92;99.99;97956.42;213911;1307;22477;-78
2022/12/08 20:41:28;;;;;;;150.10;60.90;;;;;;;1.91;99.89;97964.38;213920;1312;22510;-77
2022/12/08 20:46:29;;;;;;;130.50;54.80;;;;;;;1.89;99.84;97962.19;213922;1312;24376;-77
2022/12/08 20:51:33;;;;;;;114.70;48.70;;;;;;;1.87;99.67;97961.60;213734;1312;25450;-76
2022/12/08 20:56:35;;;;;;;141.40;57.10;;;;;;;1.86;99.75;97967.60;213963;1312;23772;-77
2022/12/08 21:01:37;;;;;;;131.10;53.70;;;;;;;1.85;99.84;97967.40;213951;1312;25546;-78
2022/12/08 21:06:39;;;;;;;119.80;50.90;;;;;;;1.83;99.65;97965.79;213856;1312;25322;-77
2022/12/08 21:11:41;;;;;;;135.50;57.30;;;;;;;1.81;99.64;97959.59;213980;1312;24314;-77
2022/12/08 21:16:42;;;;;;;108.40;43.00;;;;;;;1.81;99.89;97955.10;213875;1312;22598;-76
2022/12/08 21:21:44;;;;;;;82.80;33.20;;;;;;;1.83;99.98;97953.77;213968;1311;22574;-77
2022/12/08 21:26:46;;;;;;;103.10;43.30;;;;;;;1.83;99.82;97952.59;214003;1311;23839;-77
2022/12/08 21:31:49;;;;;;;127.20;51.20;;;;;;;1.80;99.80;97950.55;213980;1312;22605;-77
2022/12/08 21:36:51;;;;;;;106.40;47.10;;;;;;;1.78;99.82;97953.55;213942;1312;24360;-77
2022/12/08 21:47:14;;;;;;;98.60;46.20;;;;;;;1.74;99.86;97953.09;213963;1312;25280;-77
2022/12/08 21:52:16;;;;;;;99.20;43.20;;;;;;;1.72;99.83;97948.36;213750;1312;25046;-77
2022/12/08 21:57:19;;;;;;;110.20;46.50;;;;;;;1.70;99.99;97942.83;213965;1312;23239;-76
2022/12/08 22:02:20;;;;;;;90.90;41.00;;;;;;;1.67;99.98;97937.40;213917;1312;22504;-77
2022/12/08 22:07:23;;;;;;;86.10;38.80;;;;;;;1.63;99.95;97932.45;213933;1312;25227;-77
2022/12/08 22:12:27;;;;;;;91.60;39.40;;;;;;;1.59;99.98;97928.55;214006;1305;22485;-76
2022/12/08 22:17:29;;;;;;;74.10;35.80;;;;;;;1.54;100.00;97932.91;213861;1312;22531;-76
2022/12/08 22:22:33;;;;;;;72.80;37.30;;;;;;;1.52;99.99;97930.13;214031;1310;23933;-78
2022/12/08 22:27:35;;;;;;;69.00;32.60;;;;;;;1.51;100.00;97926.91;213922;1312;25290;-77
2022/12/08 22:32:37;;;;;;;67.40;31.30;;;;;;;1.51;100.00;97933.51;213862;1307;24346;-77
2022/12/08 22:37:39;;;;;;;74.80;35.80;;;;;;;1.52;100.00;97938.05;213776;1312;150146;-77
2022/12/08 22:42:42;;;;;;;66.30;30.20;;;;;;;1.52;100.00;97938.15;213988;1312;22524;-78
2022/12/08 22:47:44;;;;;;;70.80;29.70;;;;;;;1.52;100.00;97936.47;213993;1312;25370;-77
2022/12/08 22:52:45;;;;;;;60.40;29.20;;;;;;;1.52;100.00;97931.61;213994;1311;25294;-77
2022/12/08 22:57:47;;;;;;;55.90;25.20;;;;;;;1.52;100.00;97928.98;213638;1312;22634;-76
2022/12/08 23:02:49;;;;;;;44.60;20.30;;;;;;;1.52;100.00;97938.95;213694;1312;25381;-78
2022/12/08 23:07:51;;;;;;;41.70;18.80;;;;;;;1.50;100.00;97941.56;213935;1311;22495;-76
2022/12/08 23:12:53;;;;;;;38.80;18.10;;;;;;;1.48;100.00;97932.32;213985;1312;22587;-78
2022/12/08 23:18:00;;;;;;;48.90;20.50;;;;;;;1.48;100.00;97925.73;213886;1312;22500;-78
2022/12/08 23:23:02;;;;;;;42.90;20.20;;;;;;;1.49;100.00;97916.80;213705;1311;22501;-77
2022/12/08 23:28:04;;;;;;;35.00;16.70;;;;;;;1.49;100.00;97912.79;213840;1312;22481;-77
2022/12/08 23:33:06;;;;;;;36.90;17.10;;;;;;;1.50;100.00;97912.70;213860;1307;22486;-77
2022/12/08 23:38:07;;;;;;;46.60;19.60;;;;;;;1.51;100.00;97906.15;213866;1312;22497;-77
2022/12/08 23:43:09;;;;;;;42.60;18.40;;;;;;;1.52;100.00;97907.36;214022;1306;23932;-76
2022/12/08 23:48:11;;;;;;;39.70;17.80;;;;;;;1.52;100.00;97908.27;213885;1311;25322;-77